sensor_id;sensor_type;location;lat;lon;timestamp;pressure;altitude;pressure_sealevel;temperature;humidity
71248;BME280;62276;51.138;6.950;2022-08-14T00:00:22;100735.00;;;21.38;64.12
71248;BME280;62276;51.138;6.950;2022-08-14T00:02:52;100733.00;;;21.40;63.35
71248;BME280;62276;51.138;6.950;2022-08-14T00:05:22;100730.00;;;21.42;63.30
71248;BME280;62276;51.138;6.950;2022-08-14T00:07:52;100727.00;;;21.45;62.33
71248;BME280;62276;51.138;6.950;2022-08-14T00:10:23;100725.00;;;21.48;63.18
71248;BME280;62276;51.138;6.950;2022-08-14T00:12:55;100721.00;;;21.51;63.69
71248;BME280;62276;51.138;6.950;2022-08-14T00:15:28;100718.00;;;21.57;63.11
71248;BME280;62276;51.138;6.950;2022-08-14T00:17:54;100714.00;;;21.62;62.60
71248;BME280;62276;51.138;6.950;2022-08-14T00:20:27;100710.00;;;21.69;63.50
71248;BME280;62276;51.138;6.950;2022-08-14T00:22:54;100707.00;;;21.76;62.16
71248;BME280;62276;51.138;6.950;2022-08-14T00:25:26;100705.00;;;21.83;62.98
71248;BME280;62276;51.138;6.950;2022-08-14T00:27:55;100704.00;;;21.91;62.67
71248;BME280;62276;51.138;6.950;2022-08-14T00:30:26;100703.00;;;21.97;62.27
71248;BME280;62276;51.138;6.950;2022-08-14T00:32:55;100699.00;;;22.03;61.96
71248;BME280;62276;51.138;6.950;2022-08-14T00:35:25;100694.00;;;22.09;61.58
71248;BME280;62276;51.138;6.950;2022-08-14T00:37:56;100690.00;;;22.16;61.00
71248;BME280;62276;51.138;6.950;2022-08-14T00:40:26;100687.00;;;22.22;62.28
71248;BME280;62276;51.138;6.950;2022-08-14T00:42:56;100685.00;;;22.28;61.94
71248;BME280;62276;51.138;6.950;2022-08-14T00:45:26;100685.00;;;22.35;61.92
71248;BME280;62276;51.138;6.950;2022-08-14T00:47:56;100682.00;;;22.41;61.43
71248;BME280;62276;51.138;6.950;2022-08-14T00:50:27;100678.00;;;22.46;61.30
71248;BME280;62276;51.138;6.950;2022-08-14T00:52:57;100676.00;;;22.52;61.24
71248;BME280;62276;51.138;6.950;2022-08-14T00:55:28;100674.00;;;22.58;61.38
71248;BME280;62276;51.138;6.950;2022-08-14T00:57:58;100672.00;;;22.65;60.55
71248;BME280;62276;51.138;6.950;2022-08-14T01:00:27;100671.00;;;22.72;61.10
71248;BME280;62276;51.138;6.950;2022-08-14T01:02:58;100667.00;;;22.78;60.64
71248;BME280;62276;51.138;6.950;2022-08-14T01:05:28;100664.00;;;22.84;60.40
71248;BME280;62276;51.138;6.950;2022-08-14T01:07:59;100659.00;;;22.90;60.66
71248;BME280;62276;51.138;6.950;2022-08-14T01:10:29;100655.00;;;22.94;60.36
71248;BME280;62276;51.138;6.950;2022-08-14T01:12:58;100650.00;;;22.97;60.50
71248;BME280;62276;51.138;6.950;2022-08-14T01:15:28;100647.00;;;22.99;61.00
71248;BME280;62276;51.138;6.950;2022-08-14T01:17:58;100643.00;;;23.01;60.25
71248;BME280;62276;51.138;6.950;2022-08-14T01:20:29;100640.00;;;23.02;60.31
71248;BME280;62276;51.138;6.950;2022-08-14T01:22:59;100637.00;;;23.03;60.25
71248;BME280;62276;51.138;6.950;2022-08-14T01:25:29;100634.00;;;23.04;60.70
71248;BME280;62276;51.138;6.950;2022-08-14T01:27:59;100632.00;;;23.04;60.29
71248;BME280;62276;51.138;6.950;2022-08-14T01:30:30;100629.00;;;23.05;60.17
71248;BME280;62276;51.138;6.950;2022-08-14T01:33:00;100626.00;;;23.06;60.46
71248;BME280;62276;51.138;6.950;2022-08-14T01:35:30;100623.00;;;23.07;60.60
71248;BME280;62276;51.138;6.950;2022-08-14T01:38:00;100619.00;;;23.07;60.41
71248;BME280;62276;51.138;6.950;2022-08-14T01:40:30;100615.00;;;23.08;61.08
71248;BME280;62276;51.138;6.950;2022-08-14T01:43:00;100611.00;;;23.09;60.33
71248;BME280;62276;51.138;6.950;2022-08-14T01:45:30;100607.00;;;23.10;60.63
71248;BME280;62276;51.138;6.950;2022-08-14T01:48:00;100603.00;;;23.11;61.07
71248;BME280;62276;51.138;6.950;2022-08-14T01:50:30;100599.00;;;23.12;60.84
71248;BME280;62276;51.138;6.950;2022-08-14T01:53:00;100595.00;;;23.12;61.17
71248;BME280;62276;51.138;6.950;2022-08-14T01:55:30;100592.00;;;23.12;60.77
71248;BME280;62276;51.138;6.950;2022-08-14T01:58:00;100590.00;;;23.11;61.68
71248;BME280;62276;51.138;6.950;2022-08-14T02:00:30;100588.00;;;23.10;61.47
71248;BME280;62276;51.138;6.950;2022-08-14T02:03:00;100585.00;;;23.08;61.43
71248;BME280;62276;51.138;6.950;2022-08-14T02:05:30;100583.00;;;23.07;61.42
71248;BME280;62276;51.138;6.950;2022-08-14T02:08:00;100578.00;;;23.05;62.36
71248;BME280;62276;51.138;6.950;2022-08-14T02:10:30;100575.00;;;23.04;61.36
71248;BME280;62276;51.138;6.950;2022-08-14T02:13:00;100573.00;;;23.04;61.95
71248;BME280;62276;51.138;6.950;2022-08-14T02:15:30;100571.00;;;23.02;62.56
71248;BME280;62276;51.138;6.950;2022-08-14T02:18:00;100569.00;;;22.99;62.21
71248;BME280;62276;51.138;6.950;2022-08-14T02:20:31;100567.00;;;22.96;62.55
71248;BME280;62276;51.138;6.950;2022-08-14T02:23:01;100565.00;;;22.91;63.26
71248;BME280;62276;51.138;6.950;2022-08-14T02:25:31;100565.00;;;22.86;63.28
71248;BME280;62276;51.138;6.950;2022-08-14T02:28:01;100565.00;;;22.81;63.97
71248;BME280;62276;51.138;6.950;2022-08-14T02:30:32;100565.00;;;22.76;63.73
71248;BME280;62276;51.138;6.950;2022-08-14T02:33:02;100565.00;;;22.72;63.70
71248;BME280;62276;51.138;6.950;2022-08-14T02:35:32;100566.00;;;22.67;64.36
71248;BME280;62276;51.138;6.950;2022-08-14T02:38:02;100568.00;;;22.63;63.79
71248;BME280;62276;51.138;6.950;2022-08-14T02:40:32;100570.00;;;22.59;64.14
71248;BME280;62276;51.138;6.950;2022-08-14T02:43:03;100574.00;;;22.56;64.88
71248;BME280;62276;51.138;6.950;2022-08-14T02:45:32;100576.00;;;22.51;65.81
71248;BME280;62276;51.138;6.950;2022-08-14T02:48:04;100578.00;;;22.46;66.44
71248;BME280;62276;51.138;6.950;2022-08-14T02:50:33;100578.00;;;22.39;66.57
71248;BME280;62276;51.138;6.950;2022-08-14T02:53:03;100578.00;;;22.31;67.27
71248;BME280;62276;51.138;6.950;2022-08-14T02:55:33;100579.00;;;22.22;66.51
71248;BME280;62276;51.138;6.950;2022-08-14T02:58:04;100579.00;;;22.11;67.15
71248;BME280;62276;51.138;6.950;2022-08-14T03:00:33;100579.00;;;22.00;67.95
71248;BME280;62276;51.138;6.950;2022-08-14T03:03:03;100580.00;;;21.89;67.98
71248;BME280;62276;51.138;6.950;2022-08-14T03:05:34;100581.00;;;21.77;68.31
71248;BME280;62276;51.138;6.950;2022-08-14T03:08:08;100580.00;;;21.66;69.09
71248;BME280;62276;51.138;6.950;2022-08-14T03:10:35;100579.00;;;21.55;69.38
71248;BME280;62276;51.138;6.950;2022-08-14T03:13:05;100578.00;;;21.44;69.74
71248;BME280;62276;51.138;6.950;2022-08-14T03:15:35;100576.00;;;21.34;69.85
71248;BME280;62276;51.138;6.950;2022-08-14T03:18:09;100576.00;;;21.24;69.93
71248;BME280;62276;51.138;6.950;2022-08-14T03:20:35;100574.00;;;21.14;70.94
71248;BME280;62276;51.138;6.950;2022-08-14T03:23:06;100574.00;;;21.05;70.93
71248;BME280;62276;51.138;6.950;2022-08-14T03:25:35;100572.00;;;20.97;71.56
71248;BME280;62276;51.138;6.950;2022-08-14T03:28:07;100571.00;;;20.89;71.58
71248;BME280;62276;51.138;6.950;2022-08-14T03:30:37;100570.00;;;20.81;71.76
71248;BME280;62276;51.138;6.950;2022-08-14T03:33:09;100570.00;;;20.73;72.50
71248;BME280;62276;51.138;6.950;2022-08-14T03:35:40;100570.00;;;20.66;72.09
71248;BME280;62276;51.138;6.950;2022-08-14T03:38:10;100570.00;;;20.59;72.55
71248;BME280;62276;51.138;6.950;2022-08-14T03:40:39;100570.00;;;20.52;72.76
71248;BME280;62276;51.138;6.950;2022-08-14T03:43:10;100569.00;;;20.45;73.15
71248;BME280;62276;51.138;6.950;2022-08-14T03:45:40;100570.00;;;20.39;73.23
71248;BME280;62276;51.138;6.950;2022-08-14T03:48:13;100571.00;;;20.32;73.68
71248;BME280;62276;51.138;6.950;2022-08-14T03:50:41;100570.00;;;20.26;73.98
71248;BME280;62276;51.138;6.950;2022-08-14T03:53:11;100569.00;;;20.20;74.22
71248;BME280;62276;51.138;6.950;2022-08-14T03:55:41;100568.00;;;20.14;74.46
71248;BME280;62276;51.138;6.950;2022-08-14T03:58:11;100566.00;;;20.08;74.86
71248;BME280;62276;51.138;6.950;2022-08-14T04:00:42;100566.00;;;20.03;75.17
71248;BME280;62276;51.138;6.950;2022-08-14T04:03:12;100566.00;;;19.97;75.06
71248;BME280;62276;51.138;6.950;2022-08-14T04:05:42;100568.00;;;19.91;74.93
71248;BME280;62276;51.138;6.950;2022-08-14T04:08:12;100567.00;;;19.86;74.65
71248;BME280;62276;51.138;6.950;2022-08-14T04:10:42;100567.00;;;19.81;74.82
71248;BME280;62276;51.138;6.950;2022-08-14T04:13:13;100568.00;;;19.76;75.77
71248;BME280;62276;51.138;6.950;2022-08-14T04:15:44;100567.00;;;19.72;75.73
71248;BME280;62276;51.138;6.950;2022-08-14T04:18:14;100566.00;;;19.68;76.17
71248;BME280;62276;51.138;6.950;2022-08-14T04:20:44;100565.00;;;19.64;76.08
71248;BME280;62276;51.138;6.950;2022-08-14T04:23:14;100565.00;;;19.60;76.22
71248;BME280;62276;51.138;6.950;2022-08-14T04:25:44;100564.00;;;19.56;76.14
71248;BME280;62276;51.138;6.950;2022-08-14T04:28:14;100563.00;;;19.53;76.59
71248;BME280;62276;51.138;6.950;2022-08-14T04:30:44;100562.00;;;19.50;76.72
71248;BME280;62276;51.138;6.950;2022-08-14T04:33:14;100561.00;;;19.47;76.76
71248;BME280;62276;51.138;6.950;2022-08-14T04:35:44;100561.00;;;19.44;77.14
71248;BME280;62276;51.138;6.950;2022-08-14T04:38:14;100561.00;;;19.41;77.02
71248;BME280;62276;51.138;6.950;2022-08-14T04:40:44;100560.00;;;19.38;77.56
71248;BME280;62276;51.138;6.950;2022-08-14T04:43:14;100557.00;;;19.35;77.19
71248;BME280;62276;51.138;6.950;2022-08-14T04:45:44;100554.00;;;19.33;77.40
71248;BME280;62276;51.138;6.950;2022-08-14T04:48:16;100553.00;;;19.31;77.94
71248;BME280;62276;51.138;6.950;2022-08-14T04:50:49;100551.00;;;19.29;78.21
71248;BME280;62276;51.138;6.950;2022-08-14T04:53:20;100550.00;;;19.28;77.73
71248;BME280;62276;51.138;6.950;2022-08-14T04:55:47;100550.00;;;19.26;77.84
71248;BME280;62276;51.138;6.950;2022-08-14T04:58:19;100548.00;;;19.25;78.29
71248;BME280;62276;51.138;6.950;2022-08-14T05:00:48;100547.00;;;19.25;78.60
71248;BME280;62276;51.138;6.950;2022-08-14T05:03:21;100545.00;;;19.25;78.24
71248;BME280;62276;51.138;6.950;2022-08-14T05:05:50;100544.00;;;19.26;78.72
71248;BME280;62276;51.138;6.950;2022-08-14T05:08:19;100543.00;;;19.27;79.41
71248;BME280;62276;51.138;6.950;2022-08-14T05:10:51;100544.00;;;19.29;79.79
71248;BME280;62276;51.138;6.950;2022-08-14T05:13:21;100545.00;;;19.31;79.51
71248;BME280;62276;51.138;6.950;2022-08-14T05:15:52;100546.00;;;19.34;79.61
71248;BME280;62276;51.138;6.950;2022-08-14T05:18:22;100546.00;;;19.36;79.74
71248;BME280;62276;51.138;6.950;2022-08-14T05:20:54;100545.00;;;19.39;80.00
71248;BME280;62276;51.138;6.950;2022-08-14T05:23:23;100544.00;;;19.41;80.18
71248;BME280;62276;51.138;6.950;2022-08-14T05:25:54;100542.00;;;19.44;79.98
71248;BME280;62276;51.138;6.950;2022-08-14T05:28:25;100542.00;;;19.46;80.15
71248;BME280;62276;51.138;6.950;2022-08-14T05:30:56;100540.00;;;19.48;80.02
71248;BME280;62276;51.138;6.950;2022-08-14T05:33:27;100539.00;;;19.51;79.44
71248;BME280;62276;51.138;6.950;2022-08-14T05:35:57;100537.00;;;19.54;79.15
71248;BME280;62276;51.138;6.950;2022-08-14T05:38:27;100536.00;;;19.57;79.63
71248;BME280;62276;51.138;6.950;2022-08-14T05:40:56;100534.00;;;19.61;79.09
71248;BME280;62276;51.138;6.950;2022-08-14T05:43:26;100531.00;;;19.66;78.75
71248;BME280;62276;51.138;6.950;2022-08-14T05:45:57;100529.00;;;19.72;79.15
71248;BME280;62276;51.138;6.950;2022-08-14T05:48:26;100526.00;;;19.79;78.44
71248;BME280;62276;51.138;6.950;2022-08-14T05:50:57;100524.00;;;19.87;78.28
71248;BME280;62276;51.138;6.950;2022-08-14T05:53:27;100521.00;;;19.97;77.37
71248;BME280;62276;51.138;6.950;2022-08-14T05:55:57;100520.00;;;20.08;77.27
71248;BME280;62276;51.138;6.950;2022-08-14T05:58:27;100517.00;;;20.19;76.78
71248;BME280;62276;51.138;6.950;2022-08-14T06:00:57;100516.00;;;20.30;77.00
71248;BME280;62276;51.138;6.950;2022-08-14T06:03:27;100513.00;;;20.42;75.99
71248;BME280;62276;51.138;6.950;2022-08-14T06:05:57;100511.00;;;20.54;75.58
71248;BME280;62276;51.138;6.950;2022-08-14T06:08:31;100509.00;;;20.67;75.61
71248;BME280;62276;51.138;6.950;2022-08-14T06:11:00;100507.00;;;20.81;74.00
71248;BME280;62276;51.138;6.950;2022-08-14T06:13:33;100505.00;;;20.96;73.64
71248;BME280;62276;51.138;6.950;2022-08-14T06:15:58;100503.00;;;21.11;73.62
71248;BME280;62276;51.138;6.950;2022-08-14T06:18:28;100502.00;;;21.25;73.00
71248;BME280;62276;51.138;6.950;2022-08-14T06:20:58;100503.00;;;21.40;72.11
71248;BME280;62276;51.138;6.950;2022-08-14T06:23:28;100503.00;;;21.55;72.40
71248;BME280;62276;51.138;6.950;2022-08-14T06:25:58;100503.00;;;21.69;70.52
71248;BME280;62276;51.138;6.950;2022-08-14T06:28:28;100503.00;;;21.84;71.42
71248;BME280;62276;51.138;6.950;2022-08-14T06:30:58;100502.00;;;21.97;70.68
71248;BME280;62276;51.138;6.950;2022-08-14T06:33:28;100500.00;;;22.09;70.34
71248;BME280;62276;51.138;6.950;2022-08-14T06:35:58;100500.00;;;22.20;69.66
71248;BME280;62276;51.138;6.950;2022-08-14T06:38:28;100501.00;;;22.32;69.38
71248;BME280;62276;51.138;6.950;2022-08-14T06:40:58;100501.00;;;22.44;69.10
71248;BME280;62276;51.138;6.950;2022-08-14T06:43:28;100501.00;;;22.57;67.95
71248;BME280;62276;51.138;6.950;2022-08-14T06:45:58;100501.00;;;22.68;67.62
71248;BME280;62276;51.138;6.950;2022-08-14T06:48:28;100500.00;;;22.80;66.80
71248;BME280;62276;51.138;6.950;2022-08-14T06:50:59;100498.00;;;22.92;66.80
71248;BME280;62276;51.138;6.950;2022-08-14T06:53:29;100496.00;;;23.03;65.75
71248;BME280;62276;51.138;6.950;2022-08-14T06:55:58;100494.00;;;23.14;66.92
71248;BME280;62276;51.138;6.950;2022-08-14T06:58:29;100492.00;;;23.24;66.06
71248;BME280;62276;51.138;6.950;2022-08-14T07:00:59;100489.00;;;23.35;65.38
71248;BME280;62276;51.138;6.950;2022-08-14T07:03:30;100487.00;;;23.46;65.12
71248;BME280;62276;51.138;6.950;2022-08-14T07:06:00;100485.00;;;23.57;64.08
71248;BME280;62276;51.138;6.950;2022-08-14T07:08:30;100482.00;;;23.69;63.53
71248;BME280;62276;51.138;6.950;2022-08-14T07:11:00;100480.00;;;23.81;63.93
71248;BME280;62276;51.138;6.950;2022-08-14T07:13:30;100478.00;;;23.92;63.53
71248;BME280;62276;51.138;6.950;2022-08-14T07:16:00;100475.00;;;24.03;63.25
71248;BME280;62276;51.138;6.950;2022-08-14T07:18:32;100471.00;;;24.13;62.34
71248;BME280;62276;51.138;6.950;2022-08-14T07:21:03;100467.00;;;24.22;62.24
71248;BME280;62276;51.138;6.950;2022-08-14T07:23:32;100464.00;;;24.31;63.66
71248;BME280;62276;51.138;6.950;2022-08-14T07:26:03;100461.00;;;24.40;62.17
71248;BME280;62276;51.138;6.950;2022-08-14T07:28:35;100459.00;;;24.49;62.12
71248;BME280;62276;51.138;6.950;2022-08-14T07:31:06;100459.00;;;24.59;61.91
71248;BME280;62276;51.138;6.950;2022-08-14T07:33:39;100458.00;;;24.70;60.88
71248;BME280;62276;51.138;6.950;2022-08-14T07:36:06;100456.00;;;24.80;60.67
71248;BME280;62276;51.138;6.950;2022-08-14T07:38:35;100455.00;;;24.91;62.17
71248;BME280;62276;51.138;6.950;2022-08-14T07:41:06;100454.00;;;25.01;62.72
71248;BME280;62276;51.138;6.950;2022-08-14T07:43:35;100453.00;;;25.11;58.85
71248;BME280;62276;51.138;6.950;2022-08-14T07:46:06;100451.00;;;25.20;59.51
71248;BME280;62276;51.138;6.950;2022-08-14T07:48:39;100448.00;;;25.32;61.84
71248;BME280;62276;51.138;6.950;2022-08-14T07:51:07;100446.00;;;25.44;59.49
71248;BME280;62276;51.138;6.950;2022-08-14T07:53:38;100443.00;;;25.55;60.25
71248;BME280;62276;51.138;6.950;2022-08-14T07:56:08;100442.00;;;25.67;57.76
71248;BME280;62276;51.138;6.950;2022-08-14T07:58:38;100440.00;;;25.78;58.48
71248;BME280;62276;51.138;6.950;2022-08-14T08:01:08;100437.00;;;25.91;57.61
71248;BME280;62276;51.138;6.950;2022-08-14T08:03:41;100434.00;;;26.05;59.02
71248;BME280;62276;51.138;6.950;2022-08-14T08:06:09;100432.00;;;26.20;56.57
71248;BME280;62276;51.138;6.950;2022-08-14T08:08:40;100431.00;;;26.36;54.98
71248;BME280;62276;51.138;6.950;2022-08-14T08:11:11;100432.00;;;26.53;55.07
71248;BME280;62276;51.138;6.950;2022-08-14T08:13:41;100432.00;;;26.70;57.24
71248;BME280;62276;51.138;6.950;2022-08-14T08:16:11;100431.00;;;26.88;53.94
71248;BME280;62276;51.138;6.950;2022-08-14T08:18:41;100432.00;;;27.05;53.70
71248;BME280;62276;51.138;6.950;2022-08-14T08:21:11;100433.00;;;27.21;53.18
71248;BME280;62276;51.138;6.950;2022-08-14T08:23:41;100433.00;;;27.39;53.03
71248;BME280;62276;51.138;6.950;2022-08-14T08:26:14;100431.00;;;27.55;52.08
71248;BME280;62276;51.138;6.950;2022-08-14T08:28:42;100429.00;;;27.68;55.27
71248;BME280;62276;51.138;6.950;2022-08-14T08:31:12;100428.00;;;27.82;55.93
71248;BME280;62276;51.138;6.950;2022-08-14T08:33:44;100426.00;;;27.95;50.73
71248;BME280;62276;51.138;6.950;2022-08-14T08:36:13;100426.00;;;28.07;51.28
71248;BME280;62276;51.138;6.950;2022-08-14T08:38:42;100426.00;;;28.18;50.02
71248;BME280;62276;51.138;6.950;2022-08-14T08:41:13;100424.00;;;28.28;51.43
71248;BME280;62276;51.138;6.950;2022-08-14T08:43:43;100421.00;;;28.37;53.97
71248;BME280;62276;51.138;6.950;2022-08-14T08:46:19;100420.00;;;28.46;49.97
71248;BME280;62276;51.138;6.950;2022-08-14T08:48:45;100417.00;;;28.55;49.70
71248;BME280;62276;51.138;6.950;2022-08-14T08:51:21;100416.00;;;28.64;51.29
71248;BME280;62276;51.138;6.950;2022-08-14T08:53:44;100416.00;;;28.72;50.67
71248;BME280;62276;51.138;6.950;2022-08-14T08:56:14;100413.00;;;28.79;49.93
71248;BME280;62276;51.138;6.950;2022-08-14T08:58:45;100411.00;;;28.85;50.02
71248;BME280;62276;51.138;6.950;2022-08-14T09:01:15;100408.00;;;28.92;48.68
71248;BME280;62276;51.138;6.950;2022-08-14T09:03:45;100405.00;;;29.00;49.42
71248;BME280;62276;51.138;6.950;2022-08-14T09:06:15;100402.00;;;29.08;48.65
71248;BME280;62276;51.138;6.950;2022-08-14T09:08:45;100400.00;;;29.17;47.08
71248;BME280;62276;51.138;6.950;2022-08-14T09:11:15;100399.00;;;29.27;50.08
71248;BME280;62276;51.138;6.950;2022-08-14T09:13:45;100399.00;;;29.34;49.34
71248;BME280;62276;51.138;6.950;2022-08-14T09:16:17;100398.00;;;29.41;47.64
71248;BME280;62276;51.138;6.950;2022-08-14T09:18:46;100396.00;;;29.50;48.22
71248;BME280;62276;51.138;6.950;2022-08-14T09:21:16;100394.00;;;29.60;47.61
71248;BME280;62276;51.138;6.950;2022-08-14T09:23:46;100392.00;;;29.67;46.79
71248;BME280;62276;51.138;6.950;2022-08-14T09:26:16;100391.00;;;29.72;45.26
71248;BME280;62276;51.138;6.950;2022-08-14T09:28:46;100388.00;;;29.78;46.05
71248;BME280;62276;51.138;6.950;2022-08-14T09:31:17;100386.00;;;29.86;46.41
71248;BME280;62276;51.138;6.950;2022-08-14T09:44:15;100369.00;;;30.38;45.18
71248;BME280;62276;51.138;6.950;2022-08-14T09:46:20;100366.00;;;30.48;46.76
71248;BME280;62276;51.138;6.950;2022-08-14T09:49:04;100361.00;;;30.56;41.44
71248;BME280;62276;51.138;6.950;2022-08-14T09:51:21;100356.00;;;30.63;40.56
71248;BME280;62276;51.138;6.950;2022-08-14T09:54:03;100350.00;;;30.71;42.61
71248;BME280;62276;51.138;6.950;2022-08-14T09:56:22;100345.00;;;30.79;39.40
71248;BME280;62276;51.138;6.950;2022-08-14T09:58:52;100342.00;;;30.88;41.83
71248;BME280;62276;51.138;6.950;2022-08-14T10:01:22;100339.00;;;30.99;40.00
71248;BME280;62276;51.138;6.950;2022-08-14T10:03:53;100337.00;;;31.09;40.42
71248;BME280;62276;51.138;6.950;2022-08-14T10:06:24;100336.00;;;31.17;39.16
71248;BME280;62276;51.138;6.950;2022-08-14T10:08:58;100335.00;;;31.26;39.93
71248;BME280;62276;51.138;6.950;2022-08-14T10:11:26;100333.00;;;31.33;39.98
71248;BME280;62276;51.138;6.950;2022-08-14T10:13:59;100331.00;;;31.40;38.27
71248;BME280;62276;51.138;6.950;2022-08-14T10:16:27;100328.00;;;31.46;38.57
71248;BME280;62276;51.138;6.950;2022-08-14T10:19:06;100325.00;;;31.54;36.98
71248;BME280;62276;51.138;6.950;2022-08-14T10:21:26;100324.00;;;31.62;39.45
71248;BME280;62276;51.138;6.950;2022-08-14T10:23:56;100321.00;;;31.69;36.71
71248;BME280;62276;51.138;6.950;2022-08-14T10:26:37;100317.00;;;31.75;35.51
71248;BME280;62276;51.138;6.950;2022-08-14T10:29:05;100314.00;;;31.80;35.92
71248;BME280;62276;51.138;6.950;2022-08-14T10:31:28;100310.00;;;31.89;37.27
71248;BME280;62276;51.138;6.950;2022-08-14T10:34:02;100306.00;;;31.97;38.23
71248;BME280;62276;51.138;6.950;2022-08-14T10:36:29;100301.00;;;32.06;36.92
71248;BME280;62276;51.138;6.950;2022-08-14T10:39:02;100297.00;;;32.14;36.06
71248;BME280;62276;51.138;6.950;2022-08-14T10:41:38;100293.00;;;32.21;35.67
71248;BME280;62276;51.138;6.950;2022-08-14T10:44:16;100289.00;;;32.28;36.90
71248;BME280;62276;51.138;6.950;2022-08-14T10:46:39;100286.00;;;32.34;35.37
71248;BME280;62276;51.138;6.950;2022-08-14T10:49:01;100282.00;;;32.39;36.73
71248;BME280;62276;51.138;6.950;2022-08-14T10:51:32;100279.00;;;32.45;38.20
71248;BME280;62276;51.138;6.950;2022-08-14T10:54:05;100275.00;;;32.50;35.58
71248;BME280;62276;51.138;6.950;2022-08-14T10:56:32;100273.00;;;32.54;38.83
71248;BME280;62276;51.138;6.950;2022-08-14T10:59:04;100270.00;;;32.59;38.35
71248;BME280;62276;51.138;6.950;2022-08-14T11:01:35;100270.00;;;32.64;34.87
71248;BME280;62276;51.138;6.950;2022-08-14T11:04:03;100269.00;;;32.69;37.34
71248;BME280;62276;51.138;6.950;2022-08-14T11:06:33;100267.00;;;32.74;37.95
71248;BME280;62276;51.138;6.950;2022-08-14T11:09:12;100265.00;;;32.79;36.10
71248;BME280;62276;51.138;6.950;2022-08-14T11:11:41;100263.00;;;32.84;33.85
71248;BME280;62276;51.138;6.950;2022-08-14T11:14:05;100260.00;;;32.90;37.11
71248;BME280;62276;51.138;6.950;2022-08-14T11:16:35;100258.00;;;32.96;33.63
71248;BME280;62276;51.138;6.950;2022-08-14T11:19:07;100259.00;;;33.02;34.69
71248;BME280;62276;51.138;6.950;2022-08-14T11:21:38;100259.00;;;32.99;36.25
71248;BME280;62276;51.138;6.950;2022-08-14T11:24:09;100258.00;;;32.84;36.26
71248;BME280;62276;51.138;6.950;2022-08-14T11:26:37;100255.00;;;32.71;37.92
71248;BME280;62276;51.138;6.950;2022-08-14T11:29:09;100253.00;;;32.68;37.68
71248;BME280;62276;51.138;6.950;2022-08-14T11:31:39;100251.00;;;32.77;35.83
71248;BME280;62276;51.138;6.950;2022-08-14T11:34:08;100248.00;;;32.92;35.50
71248;BME280;62276;51.138;6.950;2022-08-14T11:36:39;100246.00;;;33.10;34.63
71248;BME280;62276;51.138;6.950;2022-08-14T11:39:22;100242.00;;;33.23;32.86
71248;BME280;62276;51.138;6.950;2022-08-14T11:41:40;100238.00;;;33.34;35.62
71248;BME280;62276;51.138;6.950;2022-08-14T11:44:10;100233.00;;;33.45;37.41
71248;BME280;62276;51.138;6.950;2022-08-14T11:46:40;100229.00;;;33.58;33.65
71248;BME280;62276;51.138;6.950;2022-08-14T11:49:10;100225.00;;;33.70;33.89
71248;BME280;62276;51.138;6.950;2022-08-14T11:51:40;100221.00;;;33.83;31.98
71248;BME280;62276;51.138;6.950;2022-08-14T11:54:12;100218.00;;;33.97;32.55
71248;BME280;62276;51.138;6.950;2022-08-14T11:56:40;100214.00;;;34.11;34.49
71248;BME280;62276;51.138;6.950;2022-08-14T11:59:17;100210.00;;;34.25;31.44
71248;BME280;62276;51.138;6.950;2022-08-14T12:01:40;100207.00;;;34.30;31.41
71248;BME280;62276;51.138;6.950;2022-08-14T12:04:13;100204.00;;;34.35;33.37
71248;BME280;62276;51.138;6.950;2022-08-14T12:06:49;100202.00;;;34.41;32.45
71248;BME280;62276;51.138;6.950;2022-08-14T12:09:12;100199.00;;;34.52;34.41
71248;BME280;62276;51.138;6.950;2022-08-14T12:11:42;100196.00;;;34.64;32.39
71248;BME280;62276;51.138;6.950;2022-08-14T12:14:13;100190.00;;;34.72;33.43
71248;BME280;62276;51.138;6.950;2022-08-14T12:16:43;100188.00;;;34.79;33.68
71248;BME280;62276;51.138;6.950;2022-08-14T12:19:13;100186.00;;;34.84;33.83
71248;BME280;62276;51.138;6.950;2022-08-14T12:21:51;100185.00;;;34.88;34.88
71248;BME280;62276;51.138;6.950;2022-08-14T12:24:13;100183.00;;;34.94;32.38
71248;BME280;62276;51.138;6.950;2022-08-14T12:26:54;100179.00;;;35.00;30.51
71248;BME280;62276;51.138;6.950;2022-08-14T12:29:15;100175.00;;;35.05;31.47
71248;BME280;62276;51.138;6.950;2022-08-14T12:31:45;100170.00;;;35.13;31.99
71248;BME280;62276;51.138;6.950;2022-08-14T12:34:15;100165.00;;;35.26;30.83
71248;BME280;62276;51.138;6.950;2022-08-14T12:36:45;100161.00;;;35.37;30.46
71248;BME280;62276;51.138;6.950;2022-08-14T12:39:20;100157.00;;;35.47;31.33
71248;BME280;62276;51.138;6.950;2022-08-14T12:41:54;100152.00;;;35.56;30.83
71248;BME280;62276;51.138;6.950;2022-08-14T12:44:15;100144.00;;;35.66;29.95
71248;BME280;62276;51.138;6.950;2022-08-14T12:46:45;100140.00;;;35.80;28.91
71248;BME280;62276;51.138;6.950;2022-08-14T12:49:16;100135.00;;;35.99;30.42
71248;BME280;62276;51.138;6.950;2022-08-14T12:51:56;100131.00;;;36.20;28.55
71248;BME280;62276;51.138;6.950;2022-08-14T12:54:17;100126.00;;;36.31;29.97
71248;BME280;62276;51.138;6.950;2022-08-14T12:56:47;100119.00;;;36.50;27.80
71248;BME280;62276;51.138;6.950;2022-08-14T12:59:17;100115.00;;;36.81;27.10
71248;BME280;62276;51.138;6.950;2022-08-14T13:01:54;100110.00;;;37.16;26.94
71248;BME280;62276;51.138;6.950;2022-08-14T13:04:18;100106.00;;;37.40;25.47
71248;BME280;62276;51.138;6.950;2022-08-14T13:06:48;100102.00;;;37.54;27.18
71248;BME280;62276;51.138;6.950;2022-08-14T13:09:19;100099.00;;;37.64;28.51
71248;BME280;62276;51.138;6.950;2022-08-14T13:11:50;100096.00;;;37.62;27.04
71248;BME280;62276;51.138;6.950;2022-08-14T13:14:24;100092.00;;;37.61;26.40